Aguenar – Hadj Bey Akhamok Airport

DAAT · Tamanrasset, Algérie

METAR anciennes DAAT · Aguenar – Hadj Bey Akhamok Airport

Tu vois ci-dessous les METAR des derniers jours. Sélectionne une année pour parcourir les METAR plus anciens, à partir de l'année 2007.

18 avril 2024

Temps Code Temps Temp. Vue Base cloud Vent METAR/SPECI
07:30
V
19 °C 10 km+ - 080° 080° 4 kt METAR DAAT 180630Z 08004KT CAVOK 19/M09 Q1021
07:00
V
16 °C 10 km+ - 080° 080° 4 kt METAR DAAT 180600Z 08004KT CAVOK 16/M09 Q1020
06:30
V
16 °C 10 km+ - 080° 080° 4 kt METAR DAAT 180530Z 08004KT CAVOK 16/M09 Q1020
06:00
V
16 °C 10 km+ - 100° 100° 5 kt METAR DAAT 180500Z 10005KT CAVOK 16/M10 Q1020
05:30
V
14 °C 10 km+ - 100° 100° 5 kt METAR DAAT 180430Z 10005KT CAVOK 14/M11 Q1020
05:00
V
14 °C 10 km+ - 120° 120° 3 kt METAR DAAT 180400Z 12003KT CAVOK 14/M11 Q1019
04:30
V
14 °C 10 km+ - Var Var 2 kt METAR DAAT 180330Z VRB02KT CAVOK 14/M11 Q1019
04:00
V
15 °C 10 km+ - 360° 360° 0 kt METAR DAAT 180300Z 00000KT CAVOK 15/M10 Q1019
03:30
V
16 °C 10 km+ - 360° 360° 0 kt METAR DAAT 180230Z 00000KT CAVOK 16/M11 Q1019
03:00
V
16 °C 10 km+ - 360° 360° 0 kt METAR DAAT 180200Z 00000KT CAVOK 16/M11 Q1020
02:30
V
17 °C 10 km+ - 110° 110° 3 kt METAR DAAT 180130Z 11003KT CAVOK 17/M11 Q1020
02:00
V
18 °C 10 km+ - 060° 060° 4 kt METAR DAAT 180100Z 06004KT CAVOK 18/M10 Q1020
01:30
V
18 °C 10 km+ - 020° 020° 4 kt METAR DAAT 180030Z 02004KT CAVOK 18/M10 Q1020
01:00
V
19 °C 10 km+ - 030° 030° 4 kt METAR DAAT 180000Z 03004KT CAVOK 19/M11 Q1020
00:30
V
19 °C 10 km+ - 360° 360° 4 kt METAR DAAT 172330Z 36004KT CAVOK 19/M10 Q1020
00:00
V
19 °C 10 km+ - Var Var 2 kt METAR DAAT 172300Z VRB02KT CAVOK 19/M11 Q1020

17 avril 2024

Temps Code Temps Temp. Vue Base cloud Vent METAR/SPECI
23:30
V
19 °C 10 km+ - 360° 360° 0 kt METAR DAAT 172230Z 00000KT CAVOK 19/M11 Q1020
23:00
V
19 °C 10 km+ - 360° 360° 0 kt METAR DAAT 172200Z 00000KT CAVOK 19/M10 Q1021
22:30
V
21 °C 10 km+ - 360° 360° 0 kt METAR DAAT 172130Z 00000KT CAVOK 21/M09 Q1020
22:00
V
24 °C 10 km+ - 210° 210° 4 kt METAR DAAT 172100Z 21004KT CAVOK 24/M09 Q1020
21:00
V
25 °C 10 km+ - 180° 180° 4 kt METAR DAAT 172000Z 18004KT 160V220 CAVOK 25/M09 Q1020
20:30
V
26 °C 10 km+ - 200° 200° 4 kt METAR DAAT 171930Z 20004KT CAVOK 26/// Q1019
20:00
V
26 °C 10 km+ - 310° 310° 4 kt METAR DAAT 171900Z 31004KT CAVOK 26/// Q1019
19:30
V
27 °C 10 km+ - 290° 290° 4 kt METAR DAAT 171830Z 29004KT CAVOK 27/// Q1018
19:00
V
28 °C 10 km+ - 300° 300° 4 kt METAR DAAT 171800Z 30004KT 280V340 CAVOK 28/// Q1018
18:30
V
29 °C 10 km+ - 290° 290° 5 kt METAR DAAT 171730Z 29005KT 260V320 CAVOK 29/// Q1018
18:00
V
30 °C 10 km+ - 300° 300° 7 kt METAR DAAT 171700Z 30007KT 260V340 CAVOK 30/// Q1018
17:30
V
30 °C 10 km+ - Var Var 6 - 16 kt METAR DAAT 171630Z VRB06G16KT CAVOK 30/// Q1017
16:30
V
31 °C 10 km+ - 310° 310° 7 kt METAR DAAT 171530Z 31007KT 260V360 CAVOK 31/M09 Q1017
16:00
V
32 °C 10 km+ - 290° 290° 6 kt METAR DAAT 171500Z 29006KT CAVOK 32/// Q1017
15:30
V
30 °C 10 km+ - Var Var 4 kt METAR DAAT 171430Z VRB04KT CAVOK 30/// Q1017
15:00
V
31 °C 10 km+ - 280° 280° 6 kt METAR DAAT 171400Z 28006KT 230V350 CAVOK 31/// Q1017
14:30
V
30 °C 10 km+ - Var Var 5 kt METAR DAAT 171330Z VRB05KT CAVOK 30/// Q1018
14:00
V
30 °C 10 km+ - 140° 140° 4 kt METAR DAAT 171300Z 14004KT CAVOK 30/// Q1018
13:30
V
28 °C 10 km+ - 120° 120° 4 kt METAR DAAT 171230Z 12004KT 070V170 CAVOK 28/// Q1018
13:00
V
28 °C 10 km+ - 150° 150° 4 kt METAR DAAT 171200Z 15004KT 090V210 CAVOK 28/// Q1019
12:30
V
28 °C 10 km+ - 240° 240° 5 kt METAR DAAT 171130Z 24005KT 160V280 CAVOK 28/// Q1019
12:00
V
29 °C 10 km+ - Var Var 3 kt METAR DAAT 171100Z VRB03KT CAVOK 29/// Q1019
11:30
V
27 °C 10 km+ - Var Var 3 kt METAR DAAT 171030Z VRB03KT CAVOK 27/// Q1019
11:00
V
27 °C 10 km+ - Var Var 4 kt METAR DAAT 171000Z VRB04KT CAVOK 27/// Q1020
10:30
V
25 °C 10 km+ - 150° 150° 4 kt METAR DAAT 170930Z 15004KT 110V210 CAVOK 25/// Q1020
10:00
V
25 °C 10 km+ - Var Var 4 kt METAR DAAT 170900Z VRB04KT CAVOK 25/M09 Q1020
09:30
V
25 °C 10 km+ - 130° 130° 5 kt METAR DAAT 170830Z 13005KT 100V190 CAVOK 25/M09 Q1019
09:00
V
25 °C 10 km+ - 100° 100° 6 kt METAR DAAT 170800Z 10006KT CAVOK 25/M08 Q1019
08:30
V
23 °C 10 km+ - 090° 090° 6 kt METAR DAAT 170730Z 09006KT CAVOK 23/M07 Q1019
08:00
V
22 °C 10 km+ - 080° 080° 8 kt METAR DAAT 170700Z 08008KT CAVOK 22/M07 Q1019
07:30
V
19 °C 10 km+ - 070° 070° 6 kt METAR DAAT 170630Z 07006KT CAVOK 19/M07 Q1018
07:00
V
18 °C 10 km+ - 080° 080° 5 kt METAR DAAT 170600Z 08005KT CAVOK 18/M07 Q1018
06:30
V
17 °C 10 km+ - 080° 080° 8 kt METAR DAAT 170530Z 08008KT CAVOK 17/M07 Q1018
06:00
V
17 °C 10 km+ - 080° 080° 8 kt METAR DAAT 170500Z 08008KT CAVOK 17/M07 Q1018
05:30
V
16 °C 10 km+ - 080° 080° 8 kt METAR DAAT 170430Z 08008KT CAVOK 16/M07 Q1017
05:00
V
15 °C 10 km+ - 090° 090° 4 kt METAR DAAT 170400Z 09004KT CAVOK 15/M06 Q1017
04:30
V
16 °C 10 km+ - 080° 080° 5 kt METAR DAAT 170330Z 08005KT CAVOK 16/M06 Q1017
04:00
V
17 °C 10 km+ - 070° 070° 5 kt METAR DAAT 170300Z 07005KT CAVOK 17/M06 Q1017
03:30
V
18 °C 10 km+ - 080° 080° 7 kt METAR DAAT 170230Z 08007KT CAVOK 18/M07 Q1017
03:00
V
18 °C 10 km+ - 080° 080° 9 kt METAR DAAT 170200Z 08009KT CAVOK 18/M06 Q1017
02:30
V
18 °C 10 km+ - 090° 090° 8 kt METAR DAAT 170130Z 09008KT CAVOK 18/M06 Q1018
02:00
V
19 °C 10 km+ - 090° 090° 10 kt METAR DAAT 170100Z 09010KT CAVOK 19/M06 Q1018
01:30
V
18 °C 10 km+ - 090° 090° 8 kt METAR DAAT 170030Z 09008KT CAVOK 18/M09 Q1018
01:00
V
18 °C 10 km+ - 110° 110° 5 kt METAR DAAT 170000Z 11005KT CAVOK 18/M08 Q1018
00:30
V
19 °C 10 km+ - 120° 120° 9 kt METAR DAAT 162330Z 12009KT CAVOK 19/M07 Q1018
00:00
V
19 °C 10 km+ - 110° 110° 5 kt METAR DAAT 162300Z 11005KT 360V120 CAVOK 19/M06 Q1018

16 avril 2024

Temps Code Temps Temp. Vue Base cloud Vent METAR/SPECI
23:30
V
20 °C 10 km+ - 070° 070° 4 kt METAR DAAT 162230Z 07004KT 350V130 CAVOK 20/M06 Q1019
23:00
V
20 °C 10 km+ - 300° 300° 5 kt METAR DAAT 162200Z 30005KT CAVOK 20/M05 Q1019
22:30
V
21 °C 10 km+ - 300° 300° 5 kt METAR DAAT 162130Z 30005KT CAVOK 21/M05 Q1019
22:00
V
21 °C 10 km+ - 320° 320° 9 kt METAR DAAT 162100Z 32009KT CAVOK 21/M05 Q1019
21:30
V
22 °C 10 km+ - 320° 320° 9 kt METAR DAAT 162030Z 32009KT CAVOK 22/M06 Q1018
21:00
V
22 °C 10 km+ - 310° 310° 11 kt METAR DAAT 162000Z 31011KT CAVOK 22/M06 Q1018
20:30
V
23 °C 10 km+ - 310° 310° 11 kt METAR DAAT 161930Z 31011KT CAVOK 23/M06 Q1018
20:00
V
24 °C 10 km+ - 310° 310° 14 kt METAR DAAT 161900Z 31014KT CAVOK 24/M06 Q1018
19:30
V
25 °C 10 km+ - 310° 310° 12 kt METAR DAAT 161830Z 31012KT CAVOK 25/M08 Q1017
19:00
V
25 °C 10 km+ - 310° 310° 13 kt METAR DAAT 161800Z 31013KT CAVOK 25/M10 Q1017
18:30
V
27 °C 10 km+ - 300° 300° 14 kt METAR DAAT 161730Z 30014KT CAVOK 27/// Q1017
18:00
V
28 °C 10 km+ - 300° 300° 14 kt METAR DAAT 161700Z 30014KT CAVOK 28/// Q1017
17:30
V
29 °C 10 km+ - 290° 290° 12 kt METAR DAAT 161630Z 29012KT CAVOK 29/// Q1017
17:00
V
30 °C 10 km+ - Var Var 2 kt METAR DAAT 161600Z VRB02KT CAVOK 30/// Q1017
16:30
V
29 °C 10 km+ - 260° 260° 6 kt METAR DAAT 161530Z 26006KT 210V290 CAVOK 29/// Q1017
16:00
V
29 °C 10 km+ - 270° 270° 5 kt METAR DAAT 161500Z 27005KT 230V320 CAVOK 29/// Q1017
15:30
V
28 °C 10 km+ - 320° 320° 6 kt METAR DAAT 161430Z 32006KT 260V020 CAVOK 28/// Q1017
15:00
V
29 °C 10 km+ - 270° 270° 6 kt METAR DAAT 161400Z 27006KT 230V320 CAVOK 29/// Q1017
14:30
V
29 °C 10 km+ - Var Var 5 kt METAR DAAT 161330Z VRB05KT CAVOK 29/// Q1017
14:00
V
28 °C 10 km+ - Var Var 6 kt METAR DAAT 161300Z VRB06KT CAVOK 28/// Q1018
13:30
V
28 °C 10 km+ - Var Var 4 kt METAR DAAT 161230Z VRB04KT CAVOK 28/// Q1018
13:00
V
27 °C 10 km+ - 290° 290° 5 kt METAR DAAT 161200Z 29005KT 250V330 CAVOK 27/M08 Q1019
12:30
V
27 °C 10 km+ - 310° 310° 6 kt METAR DAAT 161130Z 31006KT 270V350 CAVOK 27/M07 Q1019
12:00
V
26 °C 10 km+ - Var Var 4 kt METAR DAAT 161100Z VRB04KT CAVOK 26/M08 Q1019
11:30
V
25 °C 10 km+ - Var Var 4 kt METAR DAAT 161030Z VRB04KT CAVOK 25/M09 Q1020
11:00
V
24 °C 10 km+ - Var Var 4 kt METAR DAAT 161000Z VRB04KT CAVOK 24/M07 Q1020
10:30
V
23 °C 10 km+ - Var Var 3 kt METAR DAAT 160930Z VRB03KT CAVOK 23/M07 Q1020
10:00
V
22 °C 10 km+ - 200° 200° 3 kt METAR DAAT 160900Z 20003KT 140V250 CAVOK 22/M09 Q1020
09:30
V
21 °C 10 km+ - Var Var 2 kt METAR DAAT 160830Z VRB02KT CAVOK 21/M07 Q1020
09:00
V
19 °C 10 km+ - Var Var 2 kt METAR DAAT 160800Z VRB02KT CAVOK 19/M08 Q1019
08:30
V
17 °C 10 km+ - Var Var 2 kt METAR DAAT 160730Z VRB02KT CAVOK 17/M07 Q1019
08:00
V
14 °C 10 km+ - Var Var 2 kt METAR DAAT 160700Z VRB02KT CAVOK 14/M08 Q1019
07:30
V
11 °C 10 km+ - 040° 040° 4 kt METAR DAAT 160630Z 04004KT CAVOK 11/M07 Q1018
07:00
V
10 °C 10 km+ - 350° 350° 4 kt METAR DAAT 160600Z 35004KT CAVOK 10/M06 Q1018
Signaler les modifications